Time;durP1;ratioP1;P1;durP2;ratioP2;P2;SDS_P1;SDS_P2;PMS_P1;PMS_P2;Temp;Humidity;BMP_temperature;BMP_pressure;BME280_temperature;BME280_humidity;BME280_pressure;Samples;Min_cycle;Max_cycle;Signal;HPM_P1;HPM_P2
2022/07/09 00:00:38;;;;;;;3.90;3.60;;;;;;;22.82;100.00;99928.91;5017672;28;20199;-75
2022/07/09 00:03:05;;;;;;;5.22;3.53;;;;;;;22.85;100.00;99931.44;5052943;28;20688;-75
2022/07/09 00:05:32;;;;;;;4.90;3.60;;;;;;;22.71;100.00;99928.44;5052627;28;20204;-75
2022/07/09 00:07:59;;;;;;;4.80;3.95;;;;;;;22.62;100.00;99899.66;5051612;28;20208;-75
2022/07/09 00:10:27;;;;;;;4.07;3.67;;;;;;;22.92;100.00;99922.34;5052130;28;20713;-75
2022/07/09 00:12:54;;;;;;;4.72;3.65;;;;;;;22.99;100.00;99922.97;5052068;28;20207;-76
2022/07/09 00:15:21;;;;;;;7.30;4.20;;;;;;;22.97;100.00;99914.25;5052025;28;20199;-75
2022/07/09 00:17:47;;;;;;;5.38;3.67;;;;;;;23.02;100.00;99923.72;5052640;28;20203;-76
2022/07/09 00:20:14;;;;;;;4.57;3.53;;;;;;;22.93;100.00;99912.63;5052256;28;20188;-76
2022/07/09 00:22:41;;;;;;;7.85;3.55;;;;;;;22.93;100.00;99917.94;5016205;28;20702;-76
2022/07/09 00:25:08;;;;;;;3.78;3.47;;;;;;;22.88;100.00;99928.66;5051395;28;20211;-76
2022/07/09 00:27:36;;;;;;;3.80;3.40;;;;;;;22.99;100.00;99923.84;5052205;28;20195;-76
2022/07/09 00:30:04;;;;;;;3.17;2.90;;;;;;;22.68;100.00;99912.69;5052520;28;20192;-76
2022/07/09 00:32:31;;;;;;;4.72;3.75;;;;;;;22.79;100.00;99928.16;5016707;28;20200;-76
2022/07/09 00:34:57;;;;;;;3.65;3.25;;;;;;;22.50;100.00;99923.91;5017073;28;20219;-75
2022/07/09 00:37:24;;;;;;;4.10;3.30;;;;;;;22.33;100.00;99924.50;5051632;28;20208;-75
2022/07/09 00:39:51;;;;;;;3.60;3.30;;;;;;;22.32;100.00;99920.16;5052126;28;20199;-76
2022/07/09 00:42:18;;;;;;;5.18;3.58;;;;;;;22.36;100.00;99920.91;5052150;28;20203;-77
2022/07/09 00:44:47;;;;;;;3.30;3.08;;;;;;;22.35;100.00;99925.31;5052307;28;20207;-76
2022/07/09 00:47:14;;;;;;;4.47;3.25;;;;;;;22.02;100.00;99892.16;5051762;28;20253;-75
2022/07/09 00:49:43;;;;;;;3.80;3.45;;;;;;;22.15;100.00;99911.94;5051951;28;20211;-75
2022/07/09 00:52:12;;;;;;;5.50;3.47;;;;;;;21.79;100.00;99887.63;5052175;28;20195;-76
2022/07/09 00:54:40;;;;;;;3.97;3.58;;;;;;;22.02;100.00;99919.41;5051694;28;20231;-76
2022/07/09 00:57:07;;;;;;;3.38;2.88;;;;;;;21.85;100.00;99897.13;5051250;28;20615;-76
2022/07/09 00:59:35;;;;;;;5.22;3.78;;;;;;;21.97;100.00;99916.09;5051252;28;20563;-78
2022/07/09 01:02:04;;;;;;;3.70;3.40;;;;;;;22.04;100.00;99912.31;5051763;28;20210;-76
2022/07/09 01:04:32;;;;;;;2.92;2.72;;;;;;;22.08;100.00;99899.88;5051990;28;20210;-76
2022/07/09 01:06:58;;;;;;;3.90;3.30;;;;;;;22.20;100.00;99916.16;5051159;28;20207;-75
2022/07/09 01:09:25;;;;;;;3.60;3.30;;;;;;;22.03;100.00;99918.50;5051469;28;20207;-76
2022/07/09 01:11:52;;;;;;;3.38;3.17;;;;;;;22.04;100.00;99904.41;5051161;28;20203;-76
2022/07/09 01:14:19;;;;;;;3.13;2.92;;;;;;;22.04;100.00;99912.31;5051554;28;20223;-75
2022/07/09 01:16:46;;;;;;;6.43;3.60;;;;;;;21.90;100.00;99916.31;5050640;28;20207;-76
2022/07/09 01:19:14;;;;;;;3.85;2.92;;;;;;;22.02;100.00;99927.34;5051672;28;20233;-76
2022/07/09 01:21:43;;;;;;;3.53;3.33;;;;;;;21.94;100.00;99902.97;5050890;28;20214;-76
2022/07/09 01:24:09;;;;;;;3.38;3.17;;;;;;;22.06;100.00;99928.97;5050941;28;20203;-75
2022/07/09 01:26:37;;;;;;;3.10;2.85;;;;;;;22.17;100.00;99926.81;5050869;28;20199;-75
2022/07/09 01:29:03;;;;;;;3.38;3.08;;;;;;;22.10;100.00;99935.88;5050584;28;20320;-76
2022/07/09 01:31:30;;;;;;;2.85;2.75;;;;;;;21.94;100.00;99928.53;5050801;28;20203;-76
2022/07/09 01:33:57;;;;;;;3.47;3.20;;;;;;;21.95;100.00;99923.19;5051117;28;20215;-77
2022/07/09 01:36:24;;;;;;;3.55;3.20;;;;;;;21.97;100.00;99918.72;5050982;28;20199;-77
2022/07/09 01:38:52;;;;;;;3.47;3.17;;;;;;;22.03;100.00;99917.66;5051340;28;20211;-77
2022/07/09 01:41:19;;;;;;;3.70;3.40;;;;;;;21.78;100.00;99928.13;5051176;28;20578;-76
2022/07/09 01:43:46;;;;;;;3.50;3.22;;;;;;;21.87;100.00;99919.91;5051165;28;20269;-76
2022/07/09 01:46:13;;;;;;;3.67;3.38;;;;;;;21.78;100.00;99922.84;5050765;28;20203;-77
2022/07/09 01:48:42;;;;;;;3.33;3.13;;;;;;;21.90;100.00;99918.97;5050387;28;20199;-76
2022/07/09 01:51:09;;;;;;;2.88;2.78;;;;;;;21.80;100.00;99886.69;5051058;28;20214;-76
2022/07/09 01:53:35;;;;;;;3.50;3.20;;;;;;;22.03;100.00;99917.66;5051255;28;20231;-76
2022/07/09 01:56:07;;;;;;;5.43;3.08;;;;;;;21.95;100.00;99909.97;5050574;28;20195;-76
2022/07/09 01:58:34;;;;;;;4.45;3.33;;;;;;;21.70;100.00;99901.13;5050712;28;20671;-76
2022/07/09 02:01:01;;;;;;;5.18;3.13;;;;;;;21.75;100.00;99917.69;5050682;28;20210;-76
2022/07/09 02:03:28;;;;;;;3.47;3.17;;;;;;;21.44;100.00;99916.97;5050874;28;20207;-76
2022/07/09 02:05:55;;;;;;;3.47;3.25;;;;;;;21.55;100.00;99912.19;5050571;28;20191;-76
2022/07/09 02:08:22;;;;;;;5.03;3.65;;;;;;;21.27;100.00;99905.16;5050964;28;20562;-76
2022/07/09 02:10:49;;;;;;;7.22;3.30;;;;;;;21.43;100.00;99917.88;5032314;28;20265;-76
2022/07/09 02:13:19;;;;;;;3.75;3.28;;;;;;;21.49;100.00;99910.63;5031263;28;20211;-76
2022/07/09 02:15:46;;;;;;;3.35;3.13;;;;;;;21.38;100.00;99912.72;5050026;28;20228;-75
2022/07/09 02:18:13;;;;;;;6.65;3.30;;;;;;;21.45;100.00;99913.38;5049504;28;20207;-76
2022/07/09 02:20:40;;;;;;;3.75;3.40;;;;;;;21.41;100.00;99922.31;5015772;28;20756;-75
2022/07/09 02:23:07;;;;;;;3.58;3.28;;;;;;;21.34;100.00;99915.50;5015914;28;20202;-75
2022/07/09 02:25:34;;;;;;;4.60;3.33;;;;;;;21.26;100.00;99916.59;5050162;28;20575;-75
2022/07/09 02:28:01;;;;;;;4.10;3.70;;;;;;;21.17;100.00;99919.53;5050755;28;20195;-75
2022/07/09 02:30:30;;;;;;;4.10;3.53;;;;;;;21.20;100.00;99914.16;5050387;28;20320;-75
2022/07/09 02:32:56;;;;;;;3.78;3.35;;;;;;;21.10;100.00;99907.47;5050671;28;20196;-75
2022/07/09 02:35:23;;;;;;;4.07;3.78;;;;;;;21.35;100.00;99919.88;5050877;28;20231;-75
2022/07/09 02:37:50;;;;;;;3.53;3.30;;;;;;;21.38;100.00;99927.69;5015662;28;20672;-75
2022/07/09 02:40:17;;;;;;;5.68;3.45;;;;;;;21.38;100.00;99923.28;5050215;28;20199;-74
2022/07/09 02:42:44;;;;;;;3.58;3.28;;;;;;;21.37;100.00;99926.81;5051871;28;20203;-75
2022/07/09 02:45:11;;;;;;;3.63;3.42;;;;;;;21.22;100.00;99911.50;5053872;28;20207;-75
2022/07/09 02:47:39;;;;;;;3.75;3.50;;;;;;;21.45;100.00;99934.50;5053867;28;20583;-75
2022/07/09 02:50:07;;;;;;;4.03;3.72;;;;;;;21.17;100.00;99914.28;5019233;28;20686;-75
2022/07/09 02:52:34;;;;;;;4.18;3.88;;;;;;;21.27;100.00;99923.63;5018904;28;20199;-75
2022/07/09 02:55:00;;;;;;;4.47;3.78;;;;;;;21.25;100.00;99938.63;5052969;28;20235;-75
2022/07/09 02:57:27;;;;;;;5.15;3.90;;;;;;;21.33;100.00;99937.53;5053955;28;20200;-75
2022/07/09 02:59:54;;;;;;;3.88;3.60;;;;;;;21.35;100.00;99938.34;5035437;28;20651;-76
2022/07/09 03:02:21;;;;;;;3.75;3.50;;;;;;;21.38;100.00;99944.38;5054088;28;20207;-76
2022/07/09 03:04:49;;;;;;;4.43;4.05;;;;;;;20.74;100.00;99822.41;5054153;28;20210;-76
2022/07/09 03:07:16;;;;;;;7.75;3.70;;;;;;;21.37;100.00;99941.81;5054001;28;20203;-76
2022/07/09 03:09:43;;;;;;;3.63;3.42;;;;;;;21.20;100.00;99943.19;5017634;28;20223;-76
2022/07/09 03:12:10;;;;;;;4.30;4.00;;;;;;;21.21;100.00;99931.72;5053607;28;20206;-75
2022/07/09 03:14:37;;;;;;;4.38;3.55;;;;;;;21.31;100.00;99942.84;5034909;28;20223;-75
2022/07/09 03:17:04;;;;;;;3.72;3.38;;;;;;;21.37;100.00;99947.09;5053539;28;20188;-76
2022/07/09 03:19:31;;;;;;;3.85;3.60;;;;;;;21.24;100.00;99925.47;5053729;28;20201;-75
2022/07/09 03:21:59;;;;;;;4.10;3.80;;;;;;;21.44;100.00;99948.63;5053331;28;20203;-75
2022/07/09 03:24:26;;;;;;;3.95;3.65;;;;;;;21.46;100.00;99950.28;5052744;28;20214;-76
2022/07/09 03:26:53;;;;;;;4.82;3.47;;;;;;;21.40;100.00;99942.56;5053707;28;20208;-75
2022/07/09 03:29:20;;;;;;;3.92;3.53;;;;;;;21.35;100.00;99940.97;5053332;28;20214;-77
2022/07/09 03:31:46;;;;;;;4.05;3.60;;;;;;;;;;5034015;28;20195;-76
2022/07/09 03:34:13;;;;;;;4.65;3.55;;;;;;;21.45;100.00;99945.06;5052547;28;20231;-76
2022/07/09 03:36:40;;;;;;;5.10;3.67;;;;;;;21.41;100.00;99952.19;5052329;28;20583;-76
2022/07/09 03:39:08;;;;;;;3.65;3.35;;;;;;;21.52;100.00;99954.50;5052690;28;20210;-76
2022/07/09 03:41:35;;;;;;;6.22;3.70;;;;;;;21.52;100.00;99959.78;5052879;28;20222;-76
2022/07/09 03:44:02;;;;;;;3.78;3.47;;;;;;;21.58;100.00;99962.25;5017459;28;20192;-76
2022/07/09 03:46:29;;;;;;;12.10;4.30;;;;;;;21.54;100.00;99963.25;5053127;28;20208;-76
2022/07/09 03:48:56;;;;;;;4.45;4.05;;;;;;;21.52;100.00;99959.78;5034646;28;20573;-76
2022/07/09 03:51:22;;;;;;;3.67;3.38;;;;;;;21.64;100.00;99967.31;5052636;28;20203;-75
2022/07/09 03:53:49;;;;;;;3.80;3.53;;;;;;;21.73;100.00;99969.66;5051385;28;20233;-76
2022/07/09 03:56:19;;;;;;;4.22;3.88;;;;;;;21.72;100.00;99965.31;5052897;28;20219;-76
2022/07/09 03:58:47;;;;;;;4.38;3.92;;;;;;;21.74;100.00;99969.59;5052897;28;20656;-76
2022/07/09 04:01:14;;;;;;;4.28;3.58;;;;;;;21.81;100.00;99970.28;5052812;28;20199;-77
2022/07/09 04:03:40;;;;;;;6.93;3.97;;;;;;;21.69;100.00;99975.94;5053062;28;20207;-77
2022/07/09 04:06:08;;;;;;;4.28;3.92;;;;;;;21.74;100.00;99952.91;5052779;28;20196;-76
2022/07/09 04:08:35;;;;;;;4.82;3.45;;;;;;;21.89;100.00;99973.53;5017651;28;20199;-76
2022/07/09 04:11:01;;;;;;;4.63;4.20;;;;;;;22.13;100.00;99985.06;5052759;28;20235;-76
2022/07/09 04:13:30;;;;;;;4.30;3.90;;;;;;;22.42;100.00;99989.38;5052752;28;20195;-76
2022/07/09 04:15:56;;;;;;;4.75;3.65;;;;;;;21.99;100.00;99959.13;5052664;28;20242;-76
2022/07/09 04:18:23;;;;;;;4.65;4.15;;;;;;;22.38;100.00;99971.88;5052786;28;20687;-76
2022/07/09 04:20:50;;;;;;;4.68;4.28;;;;;;;22.55;100.00;99985.38;5051808;28;20211;-75
2022/07/09 04:23:17;;;;;;;5.25;3.92;;;;;;;22.69;100.00;99993.69;5052222;28;20204;-77
2022/07/09 04:25:45;;;;;;;6.38;4.43;;;;;;;22.76;100.00;99978.50;5052510;28;20244;-76
2022/07/09 04:28:12;;;;;;;4.68;4.20;;;;;;;22.82;100.00;100000.28;5052388;28;20794;-76
2022/07/09 04:30:41;;;;;;;9.80;5.38;;;;;;;22.93;100.00;99992.84;5017119;28;20192;-77
2022/07/09 04:33:08;;;;;;;4.55;4.15;;;;;;;22.90;100.00;100008.78;5052357;28;20277;-76
2022/07/09 04:35:36;;;;;;;6.13;4.55;;;;;;;22.73;100.00;100003.25;5051870;28;20239;-77
2022/07/09 04:38:03;;;;;;;8.68;4.55;;;;;;;22.67;100.00;100001.72;5052364;28;20207;-77
2022/07/09 04:40:29;;;;;;;6.10;4.50;;;;;;;22.83;100.00;100006.44;5051954;28;20191;-77
2022/07/09 04:42:56;;;;;;;4.60;4.20;;;;;;;22.89;100.00;100001.81;5051855;28;20199;-76
2022/07/09 04:45:23;;;;;;;4.13;3.80;;;;;;;22.96;100.00;100007.72;5052250;28;20199;-76
2022/07/09 04:47:52;;;;;;;4.43;4.07;;;;;;;23.26;100.00;100011.03;5051648;28;20195;-76
2022/07/09 04:50:18;;;;;;;4.30;4.00;;;;;;;22.93;100.00;100000.78;5052135;28;20206;-76
2022/07/09 04:52:45;;;;;;;7.20;3.72;;;;;;;23.06;100.00;100017.91;5051759;28;20203;-77
2022/07/09 04:55:12;;;;;;;4.32;3.97;;;;;;;22.87;100.00;99982.47;5051928;28;20713;-77
2022/07/09 04:57:39;;;;;;;4.28;3.50;;;;;;;23.06;100.00;100023.19;5051821;28;20200;-76
2022/07/09 05:00:07;;;;;;;7.65;4.05;;;;;;;23.12;100.00;100024.72;5051307;28;20199;-77
2022/07/09 05:02:34;;;;;;;4.10;3.30;;;;;;;23.70;100.00;100023.41;5051560;28;20191;-78
2022/07/09 05:05:03;;;;;;;3.88;3.65;;;;;;;23.76;100.00;100025.81;5051031;28;20553;-79
2022/07/09 05:07:30;;;;;;;3.95;3.53;;;;;;;23.43;100.00;99998.03;5051668;28;20195;-76
2022/07/09 05:09:57;;;;;;;4.10;3.67;;;;;;;23.58;100.00;100021.25;5051033;28;20200;-72
2022/07/09 05:12:24;;;;;;;4.28;3.95;;;;;;;23.75;100.00;100021.47;5015783;28;20203;-75
2022/07/09 05:14:51;;;;;;;4.15;3.70;;;;;;;24.16;100.00;100022.44;5051338;28;20227;-77
2022/07/09 05:17:18;;;;;;;4.35;3.88;;;;;;;23.96;100.00;99996.75;5051319;28;20202;-76
2022/07/09 05:19:45;;;;;;;3.72;3.53;;;;;;;24.02;100.00;100019.47;5012898;28;20250;-76
2022/07/09 05:22:13;;;;;;;3.83;3.15;;;;;;;24.17;100.00;100018.88;5043442;28;20200;-75
2022/07/09 05:24:41;;;;;;;4.43;3.30;;;;;;;24.46;100.00;100031.78;5051395;28;20215;-76
2022/07/09 05:27:09;;;;;;;4.15;3.58;;;;;;;24.42;100.00;100024.00;5051311;28;20223;-76
2022/07/09 05:29:36;;;;;;;5.00;4.28;;;;;;;24.67;100.00;100035.28;5051338;28;20195;-76
2022/07/09 05:32:03;;;;;;;4.57;4.15;;;;;;;25.05;100.00;100021.22;5049902;28;20274;-76
2022/07/09 05:34:30;;;;;;;4.63;4.07;;;;;;;25.59;100.00;100044.38;5051142;28;20660;-76
2022/07/09 05:36:57;;;;;;;4.35;3.60;;;;;;;25.96;99.26;100043.50;5050663;28;20210;-75
2022/07/09 05:39:26;;;;;;;3.60;3.33;;;;;;;26.01;97.03;100008.72;5036569;28;20219;-77
2022/07/09 05:41:53;;;;;;;10.73;8.23;;;;;;;26.23;98.78;100035.13;5015946;28;20636;-73
2022/07/09 05:44:19;;;;;;;10.13;6.15;;;;;;;26.97;93.27;100042.78;5050810;28;20207;-74
2022/07/09 05:46:46;;;;;;;10.25;6.82;;;;;;;27.52;86.31;100042.50;5051293;28;20203;-76
2022/07/09 05:49:13;;;;;;;4.53;4.13;;;;;;;27.42;82.95;100046.59;5042086;28;20304;-76
2022/07/09 05:51:40;;;;;;;3.67;3.33;;;;;;;27.51;82.56;100048.78;5010965;28;20216;-76
2022/07/09 05:54:07;;;;;;;5.47;4.97;;;;;;;28.07;78.42;100025.16;5049006;28;20223;-76
2022/07/09 05:56:36;;;;;;;5.60;4.03;;;;;;;28.44;79.23;100042.53;5044670;28;20231;-75
2022/07/09 05:59:03;;;;;;;4.53;4.13;;;;;;;28.58;72.91;100031.91;5042371;28;20197;-75
2022/07/09 06:01:30;;;;;;;6.18;4.80;;;;;;;29.80;68.44;100051.91;5050532;28;20200;-76
2022/07/09 06:03:57;;;;;;;3.85;3.40;;;;;;;29.27;63.76;100047.31;5044602;28;20203;-74
2022/07/09 06:06:24;;;;;;;5.88;3.22;;;;;;;29.04;67.46;100051.34;5035988;28;20222;-75
2022/07/09 06:08:51;;;;;;;8.48;3.58;;;;;;;29.20;67.86;100039.72;5028395;28;20297;-74
2022/07/09 06:11:18;;;;;;;4.05;3.65;;;;;;;29.43;67.11;100049.88;5042949;28;20202;-75
2022/07/09 06:13:46;;;;;;;3.88;3.60;;;;;;;29.95;65.44;100048.28;5011507;28;20203;-74
2022/07/09 06:16:13;;;;;;;4.10;3.78;;;;;;;28.84;70.68;100049.06;5047537;28;20234;-76
2022/07/09 06:18:40;;;;;;;6.32;3.50;;;;;;;29.50;69.25;100046.69;5050459;28;20195;-75
2022/07/09 06:21:07;;;;;;;4.40;3.60;;;;;;;29.53;68.28;100035.84;5050758;28;20199;-75
2022/07/09 06:23:34;;;;;;;3.38;3.17;;;;;;;29.93;65.17;100035.97;5015112;28;20199;-75
2022/07/09 06:26:01;;;;;;;4.70;3.90;;;;;;;29.30;71.81;100038.22;5032109;28;20203;-75
2022/07/09 06:28:27;;;;;;;5.82;4.10;;;;;;;29.47;65.25;100021.97;5050329;28;20253;-76
2022/07/09 06:30:56;;;;;;;4.18;3.83;;;;;;;29.16;69.28;100038.19;5051061;28;20248;-76
2022/07/09 06:33:23;;;;;;;5.18;3.80;;;;;;;28.41;77.29;100033.84;5050591;28;20207;-75
2022/07/09 06:35:50;;;;;;;3.95;3.70;;;;;;;27.53;77.31;100036.25;5050644;28;20223;-75
2022/07/09 06:38:16;;;;;;;6.00;4.88;;;;;;;27.33;78.43;100033.78;5050499;28;20207;-75
2022/07/09 06:40:43;;;;;;;6.35;4.57;;;;;;;27.03;82.79;100010.53;5050372;28;20609;-76
2022/07/09 06:43:11;;;;;;;6.78;4.75;;;;;;;26.69;87.57;100037.16;5050858;28;20207;-74
2022/07/09 06:45:37;;;;;;;6.78;4.57;;;;;;;26.49;87.34;100029.34;5050703;28;20277;-74
2022/07/09 06:48:06;;;;;;;7.72;4.82;;;;;;;25.78;92.54;100016.94;5050644;28;20608;-75
2022/07/09 06:50:33;;;;;;;6.55;4.28;;;;;;;26.15;90.30;100028.34;5049788;28;20593;-76
2022/07/09 06:53:00;;;;;;;6.47;4.70;;;;;;;26.07;92.86;100032.34;5015402;28;20246;-75
2022/07/09 06:55:27;;;;;;;6.75;4.25;;;;;;;26.30;88.36;100036.53;5044329;28;20246;-76
2022/07/09 06:57:53;;;;;;;5.40;3.38;;;;;;;26.32;77.38;100024.03;5036263;28;20207;-75
2022/07/09 07:00:20;;;;;;;4.47;3.50;;;;;;;26.71;79.13;100032.63;5050753;28;20211;-75
2022/07/09 07:02:47;;;;;;;6.63;5.65;;;;;;;26.90;77.38;100035.22;5049872;28;20206;-76
2022/07/09 07:05:15;;;;;;;35.08;16.05;;;;;;;26.74;76.35;100034.28;5050605;28;20203;-77
2022/07/09 07:07:42;;;;;;;3.63;3.33;;;;;;;26.41;76.37;100013.78;5050440;28;20207;-74
2022/07/09 07:10:10;;;;;;;5.35;3.60;;;;;;;26.70;75.03;99996.31;5050590;28;20203;-76
2022/07/09 07:12:37;;;;;;;6.70;4.53;;;;;;;27.14;73.06;100041.06;5049900;28;20212;-74
2022/07/09 07:15:05;;;;;;;5.40;3.80;;;;;;;27.35;76.78;100039.88;5050131;28;20203;-73
2022/07/09 07:17:32;;;;;;;4.10;3.72;;;;;;;27.47;68.51;100031.25;5050065;28;20230;-75
2022/07/09 07:19:59;;;;;;;3.33;3.05;;;;;;;26.92;65.62;100034.22;5049626;28;20218;-74
2022/07/09 07:22:27;;;;;;;3.20;3.00;;;;;;;26.64;64.88;100025.91;5014235;28;20219;-73
2022/07/09 07:24:54;;;;;;;6.35;3.20;;;;;;;26.65;66.13;100022.28;5049688;28;20200;-75
2022/07/09 07:27:21;;;;;;;3.80;3.50;;;;;;;26.83;68.55;100037.34;5014351;28;20214;-74
2022/07/09 07:29:48;;;;;;;4.90;3.22;;;;;;;26.78;64.91;100039.34;5048790;28;20211;-75
2022/07/09 07:32:14;;;;;;;6.97;3.08;;;;;;;27.16;63.45;100034.69;5049660;28;20211;-74
2022/07/09 07:34:41;;;;;;;3.42;2.83;;;;;;;27.23;61.59;100038.75;5049641;28;20211;-76
2022/07/09 07:37:08;;;;;;;3.78;3.45;;;;;;;27.09;59.00;100044.81;5049956;28;20227;-77
2022/07/09 07:39:36;;;;;;;3.13;2.90;;;;;;;27.53;60.07;100031.78;5049544;28;20214;-75
2022/07/09 07:42:05;;;;;;;5.07;3.00;;;;;;;27.38;56.27;100037.91;5049045;28;20324;-75
2022/07/09 07:44:32;;;;;;;2.70;2.50;;;;;;;27.44;54.84;100039.38;5049431;28;20203;-75
2022/07/09 07:46:59;;;;;;;13.77;3.60;;;;;;;27.68;53.94;100038.06;5013740;28;20211;-75
2022/07/09 07:49:26;;;;;;;2.72;2.53;;;;;;;27.28;54.73;100030.50;5049436;28;20211;-76
2022/07/09 07:51:52;;;;;;;2.45;2.35;;;;;;;26.99;53.42;100043.59;5049155;28;20211;-76
2022/07/09 07:54:20;;;;;;;4.45;4.05;;;;;;;27.08;54.36;100042.22;5049076;28;20262;-76
2022/07/09 07:56:49;;;;;;;29.45;14.38;;;;;;;26.93;53.62;100009.28;5020328;28;20240;-76
2022/07/09 07:59:16;;;;;;;3.83;2.28;;;;;;;27.47;52.42;100039.22;5045367;28;20204;-76
2022/07/09 08:01:43;;;;;;;2.15;2.05;;;;;;;27.31;52.75;100031.22;5030259;28;20219;-76
2022/07/09 08:04:10;;;;;;;3.53;2.70;;;;;;;27.26;53.52;100027.06;5048545;28;20199;-76
2022/07/09 08:06:37;;;;;;;5.75;2.50;;;;;;;27.59;52.30;100030.56;5049027;28;20211;-76
2022/07/09 08:09:04;;;;;;;4.47;2.42;;;;;;;27.79;53.48;100027.63;5048389;28;20215;-75
2022/07/09 08:11:31;;;;;;;2.78;2.67;;;;;;;27.94;51.26;100000.13;5048713;28;20206;-77
2022/07/09 08:13:59;;;;;;;3.47;2.40;;;;;;;27.90;52.11;100019.91;5009996;28;20204;-76
2022/07/09 08:16:26;;;;;;;2.70;2.50;;;;;;;27.97;53.16;100013.25;5048790;28;20234;-76
2022/07/09 08:18:53;;;;;;;2.50;2.20;;;;;;;28.32;51.04;100016.59;5013333;28;20207;-76
2022/07/09 08:21:20;;;;;;;7.20;2.60;;;;;;;28.50;49.34;100011.97;5006282;28;20218;-77
2022/07/09 08:23:53;;;;;;;3.78;2.50;;;;;;;28.91;48.51;100023.69;5048596;28;20220;-76
2022/07/09 08:26:22;;;;;;;3.20;2.72;;;;;;;29.49;48.73;100014.75;5048128;28;20207;-76
2022/07/09 08:28:49;;;;;;;5.78;2.50;;;;;;;29.52;46.86;100020.75;5048805;28;20287;-75
2022/07/09 08:31:18;;;;;;;2.70;2.50;;;;;;;29.66;47.25;100010.97;5048843;28;20227;-75
2022/07/09 08:33:45;;;;;;;3.13;2.90;;;;;;;29.54;46.77;100012.63;5006331;28;20216;-74
2022/07/09 08:36:12;;;;;;;2.22;2.03;;;;;;;29.20;45.57;100013.03;5040987;28;20326;-76
2022/07/09 08:38:39;;;;;;;2.45;2.00;;;;;;;29.54;44.85;100004.59;5048662;28;20285;-76
2022/07/09 08:41:06;;;;;;;2.13;1.92;;;;;;;29.40;46.06;100008.16;5048347;28;20205;-76
2022/07/09 08:43:34;;;;;;;2.38;2.17;;;;;;;29.17;43.94;99935.75;5047938;28;20211;-76
2022/07/09 08:46:01;;;;;;;1.83;1.73;;;;;;;29.00;43.09;100012.44;5048601;28;20207;-76
2022/07/09 08:48:33;;;;;;;2.08;1.70;;;;;;;28.48;43.63;99987.19;5048387;28;20211;-75
2022/07/09 08:51:00;;;;;;;1.50;1.40;;;;;;;28.31;42.49;100006.88;5048704;28;20641;-77
2022/07/09 08:53:29;;;;;;;3.13;1.80;;;;;;;28.37;42.45;100010.97;5048190;28;20239;-76
2022/07/09 08:55:57;;;;;;;3.65;1.85;;;;;;;28.26;42.90;100013.41;5046121;28;21294;-76
2022/07/09 08:58:24;;;;;;;1.63;1.52;;;;;;;28.19;41.61;100006.72;5036781;28;20215;-76
2022/07/09 09:00:51;;;;;;;2.85;2.05;;;;;;;28.48;41.73;99997.84;5047360;28;20993;-75
2022/07/09 09:03:19;;;;;;;2.00;1.85;;;;;;;28.86;41.22;99982.22;5047343;28;20203;-74
2022/07/09 09:06:02;;;;;;;1.83;1.70;;;;;;;29.34;39.83;100008.56;5047968;28;20230;-74
2022/07/09 09:08:28;;;;;;;2.20;1.58;;;;;;;28.92;39.54;100012.06;5048116;28;20234;-74
2022/07/09 09:10:55;;;;;;;3.17;1.83;;;;;;;28.49;40.63;100012.94;5047848;28;20223;-75
2022/07/09 09:13:22;;;;;;;3.45;1.88;;;;;;;28.78;40.71;100001.38;5047132;28;20622;-74
2022/07/09 09:15:49;;;;;;;3.08;1.70;;;;;;;28.71;39.95;99999.19;5012264;28;20215;-73
2022/07/09 09:18:16;;;;;;;1.40;1.30;;;;;;;28.61;41.07;99982.81;5028554;28;20698;-73
2022/07/09 09:20:47;;;;;;;5.78;1.70;;;;;;;28.96;41.40;99994.91;5047777;28;20895;-73
2022/07/09 09:23:17;;;;;;;5.25;1.90;;;;;;;28.99;40.90;99999.19;5011571;28;20211;-73
2022/07/09 09:25:44;;;;;;;1.80;1.70;;;;;;;29.16;40.00;99996.34;5047967;28;20211;-74
2022/07/09 09:28:14;;;;;;;2.17;1.98;;;;;;;29.03;38.91;99993.59;5047824;28;20230;-74
2022/07/09 09:30:44;;;;;;;2.10;1.90;;;;;;;28.97;40.25;99985.94;5047990;28;20199;-74
2022/07/09 09:33:15;;;;;;;5.53;2.50;;;;;;;28.97;44.48;99983.25;5047352;28;20215;-75
2022/07/09 09:35:44;;;;;;;4.43;2.47;;;;;;;28.58;45.79;99972.34;5047318;28;20295;-74
2022/07/09 09:38:12;;;;;;;7.68;3.20;;;;;;;29.25;45.60;99960.19;5028779;28;20318;-74
2022/07/09 09:40:39;;;;;;;4.70;2.60;;;;;;;29.64;45.59;99992.38;5011731;28;20199;-74
2022/07/09 09:43:08;;;;;;;8.02;5.00;;;;;;;29.57;45.43;99996.41;5047015;28;20942;-75
2022/07/09 09:45:35;;;;;;;2.97;2.00;;;;;;;28.96;45.28;100000.25;5047419;28;20215;-75
2022/07/09 09:48:05;;;;;;;11.88;7.53;;;;;;;29.42;46.77;99986.72;5047690;28;20214;-76
2022/07/09 09:50:34;;;;;;;25.92;13.63;;;;;;;30.00;44.79;99994.50;5027924;28;20203;-74
2022/07/09 09:53:03;;;;;;;18.30;12.73;;;;;;;29.10;45.71;99995.88;5045135;28;20235;-74
2022/07/09 09:55:31;;;;;;;7.20;2.60;;;;;;;29.57;44.90;99992.88;5046382;28;20684;-77
2022/07/09 09:57:59;;;;;;;2.65;2.45;;;;;;;29.33;45.31;99987.28;5042088;28;20227;-75
2022/07/09 10:00:27;;;;;;;8.63;5.13;;;;;;;29.95;44.42;99973.41;5046712;28;20237;-76
2022/07/09 10:02:53;;;;;;;3.80;3.50;;;;;;;30.21;43.15;99963.63;5045697;28;20257;-76
2022/07/09 10:05:20;;;;;;;2.45;2.20;;;;;;;30.46;42.81;99969.06;5046247;28;20226;-75
2022/07/09 10:07:47;;;;;;;5.32;2.40;;;;;;;30.42;43.05;99969.38;5027915;28;20713;-76
2022/07/09 10:10:21;;;;;;;5.70;2.97;;;;;;;29.80;44.08;99966.34;5046737;28;20685;-75
2022/07/09 10:12:50;;;;;;;2.60;2.40;;;;;;;29.16;44.62;99960.75;5046562;28;20973;-74
2022/07/09 10:15:26;;;;;;;3.58;2.80;;;;;;;29.09;45.57;99976.31;5047073;28;20214;-73
2022/07/09 10:17:53;;;;;;;5.78;2.70;;;;;;;29.07;44.85;99966.69;5027467;28;20229;-74
2022/07/09 10:20:31;;;;;;;2.65;2.45;;;;;;;28.94;46.02;99979.94;5046307;28;20211;-73
2022/07/09 10:22:58;;;;;;;7.38;2.58;;;;;;;28.41;47.52;99985.84;5045728;28;20198;-73
2022/07/09 10:25:29;;;;;;;4.38;2.53;;;;;;;28.54;47.65;99971.66;5046573;28;20211;-74
2022/07/09 10:27:58;;;;;;;89.45;64.30;;;;;;;27.97;48.71;99970.63;5046410;28;20199;-75
2022/07/09 10:30:26;;;;;;;18.10;9.88;;;;;;;27.89;48.38;99951.56;5046416;28;20218;-74
2022/07/09 10:33:03;;;;;;;2.80;2.60;;;;;;;28.08;47.94;99968.22;5045872;28;20203;-75
2022/07/09 10:35:31;;;;;;;6.85;2.50;;;;;;;28.01;48.48;99937.50;5027791;28;20218;-74
2022/07/09 10:37:58;;;;;;;2.80;2.60;;;;;;;28.42;47.62;99960.88;5046440;28;20735;-75
2022/07/09 10:40:27;;;;;;;2.05;1.95;;;;;;;27.95;48.04;99972.53;5027875;28;20207;-74
2022/07/09 10:43:03;;;;;;;3.20;2.88;;;;;;;28.51;47.94;99971.84;5046334;28;20218;-75
2022/07/09 10:45:36;;;;;;;4.25;2.22;;;;;;;28.60;46.40;99970.44;5046769;28;20687;-75
2022/07/09 10:48:06;;;;;;;5.55;3.08;;;;;;;28.84;45.56;99968.97;5046573;28;20706;-74
2022/07/09 10:50:38;;;;;;;4.40;2.38;;;;;;;28.66;45.10;99964.72;5028109;28;20214;-75
2022/07/09 10:53:05;;;;;;;5.00;2.72;;;;;;;28.65;45.63;99960.34;5045880;28;20332;-74
2022/07/09 10:55:32;;;;;;;3.40;2.35;;;;;;;29.03;44.23;99958.88;5046166;28;20878;-74
2022/07/09 10:58:02;;;;;;;3.42;2.30;;;;;;;28.98;44.54;99944.94;5046366;28;20227;-74
2022/07/09 11:00:30;;;;;;;2.40;2.30;;;;;;;29.17;43.51;99938.44;5046019;28;20675;-74
2022/07/09 11:02:59;;;;;;;3.35;2.13;;;;;;;29.29;43.18;99884.25;5046474;28;20199;-73
2022/07/09 11:05:27;;;;;;;2.55;2.33;;;;;;;29.90;41.28;99940.75;5049763;28;20874;-72
2022/07/09 11:07:59;;;;;;;33.22;20.25;;;;;;;30.19;41.50;99952.16;5049899;28;20199;-74
2022/07/09 11:10:27;;;;;;;2.75;2.55;;;;;;;29.81;41.83;99919.09;5050376;28;20204;-75
2022/07/09 11:12:54;;;;;;;2.25;2.08;;;;;;;29.22;42.55;99953.19;5049487;28;20246;-75
2022/07/09 11:15:23;;;;;;;2.20;2.10;;;;;;;29.46;42.80;99958.84;5050011;28;20215;-73
2022/07/09 11:18:00;;;;;;;3.00;2.30;;;;;;;29.42;41.88;99955.50;5049875;28;21009;-74
2022/07/09 11:20:27;;;;;;;6.63;2.30;;;;;;;29.33;41.87;99918.69;5050204;28;20211;-75
2022/07/09 11:22:56;;;;;;;2.30;2.10;;;;;;;29.42;42.62;99943.97;5049060;28;20213;-73
2022/07/09 11:25:24;;;;;;;4.38;2.55;;;;;;;30.16;41.32;99946.16;5049788;28;20217;-73
2022/07/09 11:27:51;;;;;;;5.20;2.30;;;;;;;30.16;41.41;99951.50;5049856;28;20265;-73